Time;durP1;ratioP1;P1;durP2;ratioP2;P2;SDS_P1;SDS_P2;PMS_P1;PMS_P2;Temp;Humidity;BMP_temperature;BMP_pressure;BME280_temperature;BME280_humidity;BME280_pressure;Samples;Min_cycle;Max_cycle;Signal;HPM_P1;HPM_P2
2021/06/23 00:01:45;;;;;;;23.80;15.35;;;13.70;95.20;;;;;;4940827;28;20055;-81
2021/06/23 00:04:11;;;;;;;20.35;15.43;;;13.80;95.00;;;;;;4921820;28;20028;-80
2021/06/23 00:06:36;;;;;;;26.58;16.70;;;13.80;94.90;;;;;;4973331;28;20117;-81
2021/06/23 00:09:04;;;;;;;21.67;15.82;;;13.70;95.20;;;;;;4981494;28;20047;-82
2021/06/23 00:11:35;;;;;;;24.30;16.10;;;13.70;95.10;;;;;;4960362;28;20081;-80
2021/06/23 00:14:01;;;;;;;22.92;17.13;;;13.70;94.90;;;;;;4932787;28;20036;-81
2021/06/23 00:16:27;;;;;;;21.95;16.15;;;13.70;95.40;;;;;;4963872;28;20031;-80
2021/06/23 00:18:52;;;;;;;18.27;15.77;;;13.70;94.90;;;;;;4932333;28;20538;-80
2021/06/23 00:21:18;;;;;;;20.20;14.85;;;13.70;95.30;;;;;;4961091;28;20082;-81
2021/06/23 00:23:44;;;;;;;20.85;15.57;;;13.80;94.90;;;;;;4917363;28;20086;-80
2021/06/23 00:26:09;;;;;;;16.80;13.73;;;13.80;95.60;;;;;;4955907;28;20045;-80
2021/06/23 00:28:35;;;;;;;18.83;16.60;;;13.70;95.10;;;;;;4981632;28;20030;-80
2021/06/23 00:31:00;;;;;;;22.27;14.90;;;13.70;96.10;;;;;;4953592;28;20029;-80
2021/06/23 00:33:30;;;;;;;24.73;14.40;;;13.70;95.30;;;;;;4975553;28;20033;-81
2021/06/23 00:35:55;;;;;;;21.38;14.40;;;13.80;95.10;;;;;;4929122;28;20044;-80
2021/06/23 00:38:21;;;;;;;21.08;15.20;;;13.70;95.30;;;;;;4940214;28;20503;-80
2021/06/23 00:40:46;;;;;;;27.08;16.30;;;13.70;95.00;;;;;;4946050;28;20032;-80
2021/06/23 00:43:13;;;;;;;22.70;15.98;;;13.60;95.20;;;;;;5002918;28;20123;-81
2021/06/23 00:45:38;;;;;;;16.27;14.43;;;13.60;95.30;;;;;;4945433;28;20480;-81
2021/06/23 00:48:08;;;;;;;23.23;14.43;;;13.70;95.20;;;;;;4997638;28;20035;-80
2021/06/23 00:50:34;;;;;;;17.35;15.10;;;13.70;95.00;;;;;;4936806;28;20056;-80
2021/06/23 00:52:59;;;;;;;22.67;15.10;;;13.70;94.60;;;;;;4947391;28;20047;-80
2021/06/23 00:55:25;;;;;;;22.92;14.88;;;13.70;95.00;;;;;;4994310;28;20032;-80
2021/06/23 00:57:53;;;;;;;20.92;16.27;;;13.70;94.90;;;;;;4921547;28;20460;-80
2021/06/23 01:00:20;;;;;;;17.23;12.50;;;13.70;94.70;;;;;;4946342;28;20101;-80
2021/06/23 01:02:46;;;;;;;16.58;14.05;;;13.70;94.80;;;;;;4970955;28;20063;-80
2021/06/23 01:05:12;;;;;;;19.65;16.27;;;13.70;94.70;;;;;;4956327;28;20036;-81
2021/06/23 01:07:37;;;;;;;20.75;16.98;;;13.70;94.50;;;;;;4930291;28;20531;-79
2021/06/23 01:10:16;;;;;;;23.10;14.93;;;13.60;95.50;;;;;;4942277;28;20043;-80
2021/06/23 01:12:55;;;;;;;22.45;13.10;;;13.60;95.40;;;;;;4934692;28;20038;-80
2021/06/23 01:15:20;;;;;;;21.75;13.52;;;13.60;95.40;;;;;;4952521;28;20043;-80
2021/06/23 01:17:46;;;;;;;25.48;13.82;;;13.60;95.60;;;;;;4952928;28;20025;-80
2021/06/23 01:20:12;;;;;;;19.23;14.52;;;13.50;95.80;;;;;;4953913;28;20032;-80
2021/06/23 01:22:42;;;;;;;23.10;13.68;;;13.50;95.80;;;;;;4917772;28;20687;-79
2021/06/23 01:25:12;;;;;;;25.20;14.00;;;13.50;95.60;;;;;;4958852;28;20040;-81
2021/06/23 01:27:38;;;;;;;16.20;12.98;;;13.60;95.50;;;;;;4928916;28;20110;-80
2021/06/23 01:30:05;;;;;;;18.15;13.38;;;13.50;95.40;;;;;;4917721;28;20035;-80
2021/06/23 01:32:31;;;;;;;23.05;12.93;;;13.50;95.50;;;;;;4969851;28;20167;-80
2021/06/23 01:34:56;;;;;;;17.88;13.35;;;13.50;95.60;;;;;;4944962;28;20556;-80
2021/06/23 01:37:22;;;;;;;19.63;13.23;;;13.50;95.40;;;;;;4968363;28;20031;-80
2021/06/23 01:39:47;;;;;;;28.67;14.05;;;13.50;95.40;;;;;;4933064;29;20035;-80
2021/06/23 01:42:13;;;;;;;20.70;13.95;;;13.50;95.60;;;;;;4969636;28;20033;-80
2021/06/23 01:44:45;;;;;;;18.08;12.38;;;13.50;95.20;;;;;;4941711;28;21870;-80
2021/06/23 01:47:11;;;;;;;19.05;13.18;;;13.50;95.50;;;;;;4954699;28;20027;-80
2021/06/23 01:49:36;;;;;;;27.13;13.23;;;13.40;95.20;;;;;;4966992;28;20402;-79
2021/06/23 01:52:02;;;;;;;20.20;13.57;;;13.40;95.70;;;;;;4923375;28;20027;-80
2021/06/23 01:54:28;;;;;;;23.25;12.65;;;13.40;95.60;;;;;;4951881;28;20031;-80
2021/06/23 01:56:53;;;;;;;19.67;12.50;;;13.40;95.80;;;;;;4959665;28;20043;-79
2021/06/23 01:59:19;;;;;;;20.40;13.23;;;13.40;95.80;;;;;;4991694;28;20414;-80
2021/06/23 02:02:05;;;;;;;19.73;12.80;;;13.40;95.50;;;;;;4944929;28;20574;-79
2021/06/23 02:04:51;;;;;;;;;;;13.50;95.80;;;;;;4945487;28;20404;-80
2021/06/23 02:07:58;;;;;;;17.70;13.13;;;13.40;95.10;;;;;;4939022;28;20592;-80
2021/06/23 02:10:50;;;;;;;22.55;13.02;;;13.40;95.40;;;;;;4946807;28;20029;-81
2021/06/23 02:13:40;;;;;;;22.92;14.93;;;13.40;95.30;;;;;;4939302;28;20027;-80
2021/06/23 02:16:09;;;;;;;19.25;12.98;;;13.40;95.00;;;;;;4950811;28;20086;-80
2021/06/23 02:18:35;;;;;;;19.48;12.82;;;13.40;95.30;;;;;;4912092;28;20508;-80
2021/06/23 02:21:01;;;;;;;24.23;14.20;;;13.40;96.00;;;;;;4994977;28;20498;-82
2021/06/23 02:23:26;;;;;;;19.45;13.60;;;13.40;95.40;;;;;;4932461;28;20031;-81
2021/06/23 02:25:52;;;;;;;23.50;14.55;;;13.40;95.20;;;;;;4978487;28;20046;-79
2021/06/23 02:28:18;;;;;;;26.15;15.77;;;13.40;94.90;;;;;;4994815;28;20036;-80
2021/06/23 02:30:43;;;;;;;25.30;14.55;;;13.40;95.20;;;;;;4911867;28;20035;-80
2021/06/23 02:33:09;;;;;;;20.13;14.45;;;13.40;95.10;;;;;;4985681;28;21009;-80
2021/06/23 02:35:35;;;;;;;24.48;14.18;;;13.40;95.00;;;;;;4948823;28;20073;-79
2021/06/23 02:38:00;;;;;;;19.27;13.73;;;13.40;95.00;;;;;;5011403;28;20043;-79
2021/06/23 02:40:26;;;;;;;19.17;13.35;;;13.30;95.10;;;;;;4922843;28;20028;-80
2021/06/23 02:42:51;;;;;;;31.05;14.98;;;13.30;95.70;;;;;;4920533;28;20043;-80
2021/06/23 02:45:17;;;;;;;21.35;13.18;;;13.30;95.30;;;;;;4954558;28;20031;-79
2021/06/23 02:47:42;;;;;;;19.35;12.93;;;13.30;96.00;;;;;;4927110;28;20395;-79
2021/06/23 02:50:08;;;;;;;22.35;13.98;;;13.30;95.40;;;;;;4947194;28;20111;-79
2021/06/23 02:52:35;;;;;;;21.80;14.15;;;13.30;95.40;;;;;;4936038;28;20055;-79
2021/06/23 02:55:04;;;;;;;22.65;14.40;;;13.30;95.70;;;;;;4897810;28;20089;-84
2021/06/23 02:57:30;;;;;;;22.73;14.80;;;13.30;95.50;;;;;;4966559;28;20028;-84
2021/06/23 02:59:55;;;;;;;21.75;14.90;;;13.30;95.20;;;;;;4966055;28;20029;-83
2021/06/23 03:02:21;;;;;;;26.10;12.68;;;13.30;95.40;;;;;;4916829;28;20154;-83
2021/06/23 03:04:47;;;;;;;27.80;14.93;;;13.30;95.40;;;;;;4962828;28;20283;-84
2021/06/23 03:07:13;;;;;;;18.00;13.55;;;13.30;95.30;;;;;;4910265;28;20042;-84
2021/06/23 03:09:38;;;;;;;19.02;14.18;;;13.30;95.40;;;;;;4907076;28;20024;-84
2021/06/23 03:12:05;;;;;;;18.90;13.50;;;13.20;95.50;;;;;;5012236;28;20124;-83
2021/06/23 03:14:31;;;;;;;20.83;14.00;;;13.30;95.60;;;;;;4937744;28;20388;-83
2021/06/23 03:16:58;;;;;;;24.40;13.52;;;13.30;95.70;;;;;;4939123;28;20036;-83
2021/06/23 03:19:24;;;;;;;18.90;13.07;;;13.30;95.50;;;;;;4915511;28;20027;-83
2021/06/23 03:21:51;;;;;;;18.42;14.02;;;13.20;95.60;;;;;;4953353;28;20031;-83
2021/06/23 03:24:17;;;;;;;26.00;13.15;;;13.20;95.30;;;;;;4995482;28;20036;-83
2021/06/23 03:26:42;;;;;;;26.67;15.02;;;13.30;95.70;;;;;;4950169;28;20039;-84
2021/06/23 03:29:20;;;;;;;23.15;14.85;;;13.30;95.60;;;;;;4922772;28;20039;-84
2021/06/23 03:31:45;;;;;;;21.95;13.98;;;13.20;95.80;;;;;;4948757;28;20461;-84
2021/06/23 03:34:11;;;;;;;22.38;13.85;;;13.20;95.70;;;;;;4946716;28;20122;-84
2021/06/23 03:36:36;;;;;;;26.05;14.85;;;13.20;95.80;;;;;;4936175;28;20127;-84
2021/06/23 03:39:02;;;;;;;28.23;14.88;;;13.30;95.50;;;;;;4914161;28;20059;-83
2021/06/23 03:41:27;;;;;;;22.05;13.80;;;13.20;95.70;;;;;;4950225;28;20061;-83
2021/06/23 03:43:53;;;;;;;26.00;14.20;;;13.20;95.80;;;;;;4924385;28;20036;-83
2021/06/23 03:46:18;;;;;;;20.33;14.23;;;13.20;95.60;;;;;;4947873;28;20040;-85
2021/06/23 03:48:44;;;;;;;23.02;14.38;;;13.20;95.60;;;;;;4973811;28;20077;-84
2021/06/23 03:51:09;;;;;;;28.58;14.55;;;13.20;95.90;;;;;;4991662;28;20089;-84
2021/06/23 03:53:35;;;;;;;24.63;13.98;;;13.20;95.60;;;;;;4959963;28;20167;-84
2021/06/23 03:56:00;;;;;;;22.88;12.98;;;13.20;96.00;;;;;;4976051;28;20085;-84
2021/06/23 03:58:26;;;;;;;23.40;14.27;;;13.20;95.90;;;;;;4910752;28;20537;-84
2021/06/23 04:00:51;;;;;;;21.38;13.82;;;13.20;95.90;;;;;;4929455;28;20133;-84
2021/06/23 04:03:17;;;;;;;25.45;15.98;;;13.30;95.80;;;;;;4928249;28;20028;-84
2021/06/23 04:05:42;;;;;;;21.73;14.32;;;13.30;95.70;;;;;;4910372;28;20037;-84
2021/06/23 04:08:08;;;;;;;24.80;14.68;;;13.30;95.70;;;;;;4910317;28;20075;-84
2021/06/23 04:10:33;;;;;;;17.35;13.52;;;13.30;95.60;;;;;;4955692;28;20035;-84
2021/06/23 04:12:59;;;;;;;23.88;13.25;;;13.30;95.70;;;;;;4947049;28;20064;-85
2021/06/23 04:15:24;;;;;;;23.77;13.75;;;13.30;95.90;;;;;;4917405;28;20030;-82
2021/06/23 04:17:50;;;;;;;17.58;14.05;;;13.30;96.00;;;;;;4980027;28;20059;-83
2021/06/23 04:20:15;;;;;;;20.70;12.35;;;13.30;96.10;;;;;;4913446;28;20032;-85
2021/06/23 04:22:41;;;;;;;21.15;13.02;;;13.30;95.80;;;;;;4914318;28;20038;-85
2021/06/23 04:25:08;;;;;;;19.63;13.38;;;13.40;95.90;;;;;;4915252;28;20036;-85
2021/06/23 04:27:34;;;;;;;24.13;13.65;;;13.30;96.10;;;;;;4951419;28;20033;-85
2021/06/23 04:30:00;;;;;;;17.35;13.60;;;13.40;96.10;;;;;;4948789;28;20035;-85
2021/06/23 04:32:26;;;;;;;22.65;13.13;;;13.40;95.90;;;;;;4973429;28;20404;-84
2021/06/23 04:34:51;;;;;;;23.38;13.32;;;13.40;95.80;;;;;;4934555;28;20031;-85
2021/06/23 04:37:17;;;;;;;22.88;14.18;;;13.40;95.80;;;;;;5015536;28;20036;-85
2021/06/23 04:39:42;;;;;;;19.77;12.88;;;13.50;96.00;;;;;;4947686;28;20097;-84
2021/06/23 04:42:08;;;;;;;23.10;13.68;;;13.50;95.90;;;;;;4991115;28;20166;-86
2021/06/23 04:44:33;;;;;;;20.60;11.90;;;13.50;96.10;;;;;;4910470;28;20043;-85
2021/06/23 04:46:59;;;;;;;24.05;12.95;;;13.50;95.80;;;;;;4950830;28;20119;-79
2021/06/23 04:49:24;;;;;;;19.75;12.25;;;13.50;95.90;;;;;;4934579;28;20039;-80
2021/06/23 04:51:50;;;;;;;21.92;12.73;;;13.60;95.80;;;;;;4969990;28;20043;-79
2021/06/23 04:54:15;;;;;;;22.75;11.70;;;13.60;95.80;;;;;;4966105;28;20127;-79
2021/06/23 04:56:41;;;;;;;21.33;13.52;;;13.60;95.50;;;;;;4953794;28;20039;-80
2021/06/23 04:59:06;;;;;;;22.10;12.38;;;13.60;96.10;;;;;;4934322;28;20071;-80
2021/06/23 05:01:32;;;;;;;21.25;13.55;;;13.70;96.00;;;;;;4906049;28;20054;-80
2021/06/23 05:03:57;;;;;;;23.42;13.18;;;13.70;95.90;;;;;;4941190;28;20496;-80
2021/06/23 05:06:23;;;;;;;19.20;12.95;;;13.70;96.10;;;;;;4973866;28;20033;-79
2021/06/23 05:08:48;;;;;;;18.05;12.77;;;13.70;96.50;;;;;;4974745;28;20190;-79
2021/06/23 05:11:14;;;;;;;23.63;13.80;;;13.80;96.20;;;;;;4933395;28;20074;-78
2021/06/23 05:13:40;;;;;;;20.27;12.57;;;13.80;96.10;;;;;;4924423;28;20163;-79
2021/06/23 05:16:06;;;;;;;20.42;12.80;;;13.80;96.00;;;;;;4920932;28;20135;-80
2021/06/23 05:18:33;;;;;;;20.08;12.57;;;13.90;96.00;;;;;;4899299;28;20036;-80
2021/06/23 05:20:59;;;;;;;25.30;12.88;;;13.90;96.40;;;;;;4932004;28;20086;-80
2021/06/23 05:23:24;;;;;;;18.98;12.40;;;14.00;96.50;;;;;;4907924;28;20044;-79
2021/06/23 05:25:50;;;;;;;17.73;12.90;;;14.00;96.00;;;;;;4985820;28;20043;-81
2021/06/23 05:28:15;;;;;;;20.90;12.40;;;14.10;96.20;;;;;;4912218;28;20035;-80
2021/06/23 05:30:41;;;;;;;21.95;12.48;;;14.20;96.30;;;;;;4903682;28;20036;-79
2021/06/23 05:33:06;;;;;;;18.10;12.73;;;14.20;96.10;;;;;;4911946;28;20035;-80
2021/06/23 05:35:32;;;;;;;15.73;11.60;;;14.30;96.20;;;;;;4907196;28;20047;-79
2021/06/23 05:37:57;;;;;;;17.60;12.48;;;14.30;95.90;;;;;;4932456;28;20040;-80
2021/06/23 05:40:23;;;;;;;22.63;13.10;;;14.40;96.10;;;;;;4986484;28;20063;-79
2021/06/23 05:42:48;;;;;;;24.30;12.32;;;14.50;96.00;;;;;;4911412;28;20498;-79
2021/06/23 05:45:14;;;;;;;18.88;11.82;;;14.60;96.40;;;;;;4912055;28;20042;-80
2021/06/23 05:47:40;;;;;;;18.70;12.57;;;14.60;96.50;;;;;;4914137;28;20032;-79
2021/06/23 05:50:06;;;;;;;25.80;12.32;;;14.60;96.10;;;;;;4918769;28;20032;-78
2021/06/23 05:52:31;;;;;;;26.83;13.02;;;14.70;96.40;;;;;;4898334;28;20609;-79
2021/06/23 05:54:57;;;;;;;18.48;12.90;;;14.70;96.40;;;;;;4922725;28;20023;-81
2021/06/23 05:57:23;;;;;;;19.02;12.20;;;14.80;96.20;;;;;;4914208;28;20024;-79
2021/06/23 05:59:49;;;;;;;23.52;12.23;;;14.80;96.50;;;;;;4937172;28;20028;-79
2021/06/23 06:02:15;;;;;;;21.20;11.48;;;14.80;96.40;;;;;;4920501;28;20469;-79
2021/06/23 06:04:40;;;;;;;23.08;12.75;;;14.80;96.20;;;;;;4937625;28;20055;-80
2021/06/23 06:07:06;;;;;;;17.15;10.73;;;14.90;96.30;;;;;;4968485;28;20046;-79
2021/06/23 06:09:31;;;;;;;22.55;12.23;;;14.90;96.30;;;;;;4925969;28;20032;-79
2021/06/23 06:11:57;;;;;;;21.75;11.82;;;14.90;96.20;;;;;;4906594;28;20115;-78
2021/06/23 06:14:22;;;;;;;16.52;11.65;;;15.00;96.10;;;;;;4931830;28;20119;-80
2021/06/23 06:16:48;;;;;;;20.20;10.48;;;15.00;96.20;;;;;;4926143;28;20496;-78
2021/06/23 06:19:13;;;;;;;17.33;11.63;;;15.10;96.00;;;;;;4925696;28;20036;-78
2021/06/23 06:21:39;;;;;;;21.13;12.50;;;15.10;96.20;;;;;;4918841;28;20123;-79
2021/06/23 06:24:05;;;;;;;22.25;13.35;;;15.10;96.20;;;;;;4905851;28;20443;-79
2021/06/23 06:26:30;;;;;;;19.88;12.07;;;15.20;96.20;;;;;;4898635;28;20742;-79
2021/06/23 06:28:56;;;;;;;16.83;11.85;;;15.20;96.40;;;;;;4917756;28;20086;-80
2021/06/23 06:31:22;;;;;;;19.92;12.75;;;15.30;95.90;;;;;;4921123;28;20040;-79
2021/06/23 06:33:48;;;;;;;22.48;13.55;;;15.40;96.00;;;;;;4889973;28;20036;-78
2021/06/23 06:36:14;;;;;;;22.77;11.57;;;15.40;95.80;;;;;;4916969;28;20118;-78
2021/06/23 06:38:39;;;;;;;21.92;11.60;;;15.50;96.00;;;;;;4921550;28;20108;-79
2021/06/23 06:41:05;;;;;;;15.25;10.90;;;15.50;96.00;;;;;;4917905;28;20139;-78
2021/06/23 06:43:30;;;;;;;17.88;10.68;;;15.70;96.40;;;;;;4943072;28;20141;-80
2021/06/23 06:45:59;;;;;;;13.80;11.65;;;15.70;95.80;;;;;;4986982;28;20032;-79
2021/06/23 06:48:24;;;;;;;23.10;12.27;;;15.80;96.20;;;;;;4957565;28;20053;-79
2021/06/23 06:50:50;;;;;;;20.35;11.82;;;15.80;96.10;;;;;;4983975;28;20047;-79
2021/06/23 06:53:16;;;;;;;21.13;12.90;;;15.80;96.10;;;;;;4907152;28;20043;-81
2021/06/23 06:55:41;;;;;;;18.77;10.90;;;16.00;96.00;;;;;;4896722;28;20048;-79
2021/06/23 06:58:07;;;;;;;16.58;10.77;;;16.00;96.00;;;;;;4948465;28;20066;-78
2021/06/23 07:00:32;;;;;;;19.17;11.80;;;16.10;96.10;;;;;;4905688;28;20040;-79
2021/06/23 07:02:58;;;;;;;17.42;11.48;;;16.20;96.00;;;;;;4930671;28;20043;-80
2021/06/23 07:05:23;;;;;;;16.20;11.15;;;16.30;96.00;;;;;;4891751;28;20044;-80
2021/06/23 07:07:49;;;;;;;20.15;11.35;;;16.30;96.10;;;;;;4973988;28;20174;-78
2021/06/23 07:10:15;;;;;;;18.52;10.52;;;16.40;96.10;;;;;;4918034;28;20032;-79
2021/06/23 07:12:40;;;;;;;23.02;12.18;;;16.60;95.50;;;;;;4923906;29;20113;-78
2021/06/23 07:15:06;;;;;;;16.45;10.57;;;16.60;95.90;;;;;;4912047;28;20102;-79
2021/06/23 07:17:32;;;;;;;19.05;11.18;;;16.70;96.10;;;;;;4915854;28;20028;-79
2021/06/23 07:19:57;;;;;;;17.30;10.40;;;16.80;96.10;;;;;;4921684;28;20024;-78
2021/06/23 07:22:23;;;;;;;21.80;11.75;;;17.00;96.10;;;;;;4911066;28;20032;-78
2021/06/23 07:24:50;;;;;;;18.58;10.98;;;17.10;96.00;;;;;;4950271;28;20024;-78
2021/06/23 07:27:15;;;;;;;18.63;10.55;;;17.30;96.00;;;;;;4919478;28;20432;-79
2021/06/23 07:29:41;;;;;;;18.42;10.60;;;17.40;96.10;;;;;;4888563;28;20172;-78
2021/06/23 07:32:12;;;;;;;20.23;10.35;;;17.60;95.90;;;;;;4916966;28;20166;-79
2021/06/23 07:37:12;;;;;;;28.75;12.77;;;18.00;96.00;;;;;;4907618;28;20380;-79
2021/06/23 07:39:38;;;;;;;16.25;10.20;;;18.30;95.70;;;;;;4892134;28;20024;-80
2021/06/23 07:42:05;;;;;;;20.13;10.82;;;18.50;95.80;;;;;;4906761;28;20373;-79
2021/06/23 07:44:37;;;;;;;22.45;11.02;;;18.70;96.10;;;;;;4940017;28;20531;-79
2021/06/23 07:47:09;;;;;;;17.73;10.45;;;18.90;96.30;;;;;;4919561;28;20110;-81
2021/06/23 07:49:37;;;;;;;15.70;9.07;;;19.40;95.80;;;;;;4922364;28;20187;-80
2021/06/23 07:52:09;;;;;;;17.55;9.73;;;19.80;95.00;;;;;;4932719;28;20043;-81
2021/06/23 08:08:10;;;;;;;16.33;8.85;;;20.60;94.30;;;;;;4947573;28;20042;-82
2021/06/23 08:11:32;;;;;;;12.20;7.57;;;21.70;92.90;;;;;;4894699;28;20488;-82
2021/06/23 08:13:58;;;;;;;13.43;8.35;;;21.90;93.40;;;;;;4893715;28;20036;-81
2021/06/23 08:16:23;;;;;;;14.98;8.05;;;22.20;93.80;;;;;;4906524;28;20096;-81
2021/06/23 08:18:49;;;;;;;13.63;8.15;;;22.40;92.50;;;;;;4976243;28;20032;-81
2021/06/23 08:21:15;;;;;;;17.27;8.82;;;22.50;92.40;;;;;;4989323;28;20085;-82
2021/06/23 08:23:40;;;;;;;13.10;8.48;;;22.60;92.20;;;;;;4927783;29;20063;-84
2021/06/23 08:26:06;;;;;;;16.02;7.63;;;22.80;91.60;;;;;;4944300;28;20039;-82
2021/06/23 08:28:31;;;;;;;11.10;7.93;;;22.80;90.90;;;;;;4926338;28;20404;-81
2021/06/23 08:30:57;;;;;;;11.20;7.40;;;22.90;90.90;;;;;;4985288;28;20115;-81
2021/06/23 08:33:25;;;;;;;25.08;9.10;;;22.90;91.20;;;;;;4902817;28;20039;-81
2021/06/23 08:35:52;;;;;;;13.18;7.53;;;22.90;90.30;;;;;;4901403;28;20101;-81
2021/06/23 08:38:18;;;;;;;13.30;7.68;;;23.00;89.20;;;;;;4921814;28;20068;-82
2021/06/23 08:40:44;;;;;;;17.38;7.30;;;23.20;89.20;;;;;;4890006;28;20488;-80
2021/06/23 08:43:13;;;;;;;13.43;8.50;;;23.20;87.80;;;;;;4929109;28;20059;-81
2021/06/23 08:45:39;;;;;;;11.70;6.78;;;23.30;88.50;;;;;;4946227;28;20144;-81
2021/06/23 08:48:05;;;;;;;15.98;8.65;;;23.30;88.80;;;;;;4923738;28;20163;-82
2021/06/23 08:50:30;;;;;;;12.90;7.35;;;23.50;86.10;;;;;;4904208;28;20036;-81
2021/06/23 08:52:56;;;;;;;12.60;6.40;;;23.60;85.90;;;;;;4929478;28;20039;-81
2021/06/23 08:55:23;;;;;;;18.02;6.82;;;23.60;85.40;;;;;;4917367;28;20035;-81
2021/06/23 08:57:49;;;;;;;12.75;6.85;;;23.70;85.00;;;;;;4927922;28;20035;-81
2021/06/23 09:00:16;;;;;;;17.48;7.50;;;23.80;85.60;;;;;;4931206;28;20079;-81
2021/06/23 09:02:41;;;;;;;10.90;5.78;;;23.90;82.00;;;;;;4919061;28;20040;-81
2021/06/23 09:05:11;;;;;;;17.25;6.75;;;24.00;83.70;;;;;;4983478;28;20113;-81
2021/06/23 09:07:42;;;;;;;13.18;6.63;;;24.00;82.60;;;;;;4917045;28;20034;-82
2021/06/23 09:10:18;;;;;;;12.50;6.70;;;24.10;80.30;;;;;;4910214;28;20048;-81
2021/06/23 09:12:51;;;;;;;11.07;6.32;;;24.10;79.90;;;;;;4904507;28;20032;-81
2021/06/23 09:15:45;;;;;;;12.93;6.47;;;24.00;81.30;;;;;;4929720;28;20127;-81
2021/06/23 09:18:21;;;;;;;13.43;6.60;;;24.10;80.70;;;;;;4921722;28;20036;-81
2021/06/23 09:20:48;;;;;;;11.52;6.55;;;24.20;79.80;;;;;;4925966;28;20038;-81
2021/06/23 09:23:13;;;;;;;10.02;6.53;;;24.30;80.40;;;;;;4944284;28;20121;-81
2021/06/23 09:25:44;;;;;;;14.18;6.00;;;24.30;80.50;;;;;;4953336;28;20556;-81
2021/06/23 09:28:15;;;;;;;11.25;6.53;;;24.40;81.20;;;;;;4929008;28;20416;-81
2021/06/23 09:30:42;;;;;;;12.98;6.10;;;24.60;80.90;;;;;;4932189;28;20111;-82
2021/06/23 09:33:25;;;;;;;10.98;6.53;;;24.70;79.70;;;;;;4896958;28;20513;-81
2021/06/23 09:35:57;;;;;;;10.40;5.75;;;24.80;79.30;;;;;;4891252;28;20066;-81
2021/06/23 09:38:37;;;;;;;11.45;6.68;;;24.90;78.00;;;;;;4923140;28;20036;-82
2021/06/23 09:41:26;;;;;;;11.13;6.80;;;24.90;76.90;;;;;;4930351;28;20036;-83
2021/06/23 09:43:54;;;;;;;9.93;6.15;;;24.90;77.00;;;;;;4924673;28;20464;-81
2021/06/23 09:46:22;;;;;;;13.82;7.10;;;24.90;76.40;;;;;;4918072;28;20556;-82
2021/06/23 09:48:48;;;;;;;12.82;7.03;;;24.90;75.80;;;;;;4932471;28;20067;-82
2021/06/23 09:51:16;;;;;;;14.23;6.40;;;24.70;76.80;;;;;;4921354;28;20372;-81
2021/06/23 09:53:42;;;;;;;9.77;6.07;;;24.80;76.40;;;;;;4903307;28;20169;-82
2021/06/23 09:56:47;;;;;;;12.57;6.07;;;24.50;76.40;;;;;;4920010;28;20147;-82
2021/06/23 09:59:24;;;;;;;15.65;8.15;;;24.60;75.80;;;;;;4888690;28;20037;-82
2021/06/23 10:01:50;;;;;;;13.60;5.20;;;24.60;77.10;;;;;;4931663;28;20066;-83
2021/06/23 10:04:15;;;;;;;14.32;6.35;;;24.70;77.10;;;;;;4975228;28;20067;-82
2021/06/23 10:06:46;;;;;;;15.82;6.72;;;24.80;76.20;;;;;;4902531;28;20040;-82
2021/06/23 10:09:24;;;;;;;11.63;6.38;;;24.80;73.60;;;;;;4917859;28;20086;-82
2021/06/23 10:11:54;;;;;;;13.07;6.43;;;24.80;74.80;;;;;;4919752;28;20086;-82
2021/06/23 10:14:20;;;;;;;14.13;6.75;;;24.70;72.90;;;;;;4915867;28;20087;-82
2021/06/23 10:16:47;;;;;;;15.90;5.75;;;24.70;73.40;;;;;;4941943;28;20443;-82
2021/06/23 10:19:12;;;;;;;10.60;6.18;;;24.60;74.10;;;;;;4899883;28;20040;-82
2021/06/23 10:21:39;;;;;;;12.30;6.45;;;24.50;73.70;;;;;;4938632;28;20386;-83
2021/06/23 10:24:05;;;;;;;7.25;4.80;;;24.50;73.80;;;;;;4915895;28;20431;-83
2021/06/23 10:26:31;;;;;;;16.70;6.22;;;24.50;74.80;;;;;;4910509;28;20074;-82
2021/06/23 10:28:57;;;;;;;14.75;6.32;;;24.50;72.50;;;;;;4925112;29;20044;-83
2021/06/23 10:31:24;;;;;;;16.38;6.97;;;24.60;71.50;;;;;;4922817;28;20347;-83
2021/06/23 10:33:50;;;;;;;14.23;6.13;;;24.60;72.50;;;;;;4909724;28;20510;-82
2021/06/23 10:36:15;;;;;;;14.65;7.40;;;24.90;73.70;;;;;;4919225;28;20035;-83
2021/06/23 10:38:45;;;;;;;10.80;6.45;;;25.00;72.80;;;;;;4921400;28;20037;-84
2021/06/23 10:41:11;;;;;;;15.32;7.63;;;25.10;70.80;;;;;;4919579;28;20515;-84
2021/06/23 10:43:36;;;;;;;12.55;6.88;;;25.30;69.40;;;;;;4926039;28;20048;-84
2021/06/23 10:46:03;;;;;;;16.63;6.75;;;25.60;70.00;;;;;;4907945;28;20043;-83
2021/06/23 10:48:28;;;;;;;12.85;6.95;;;25.80;70.00;;;;;;4941116;28;20028;-84
2021/06/23 10:50:54;;;;;;;12.82;6.97;;;26.10;68.20;;;;;;4970397;28;20122;-84
2021/06/23 10:53:35;;;;;;;13.25;6.70;;;26.10;68.50;;;;;;4918435;28;20038;-84
2021/06/23 10:56:02;;;;;;;17.05;7.85;;;26.40;68.60;;;;;;4922969;29;20452;-85
2021/06/23 10:58:29;;;;;;;14.07;7.15;;;26.50;67.50;;;;;;4893657;28;20035;-84
2021/06/23 11:01:15;;;;;;;12.50;5.47;;;26.70;69.60;;;;;;4981417;28;20039;-85
2021/06/23 11:04:05;;;;;;;23.25;7.88;;;27.00;68.40;;;;;;4925663;28;20354;-85
2021/06/23 11:06:40;;;;;;;11.85;6.93;;;27.30;65.60;;;;;;4940201;28;20043;-86
2021/06/23 11:09:32;;;;;;;11.50;6.63;;;27.50;65.30;;;;;;4968385;28;20047;-85
2021/06/23 11:11:58;;;;;;;9.75;7.63;;;27.70;65.40;;;;;;4925789;28;20056;-85
2021/06/23 11:14:25;;;;;;;8.32;5.30;;;27.90;66.00;;;;;;4936788;28;20042;-84
2021/06/23 11:16:50;;;;;;;14.68;7.70;;;28.20;67.00;;;;;;4919894;28;20063;-84
2021/06/23 11:19:17;;;;;;;10.70;6.35;;;28.40;62.50;;;;;;4916721;28;20131;-84
2021/06/23 11:21:45;;;;;;;12.45;6.68;;;28.60;63.00;;;;;;4901305;28;20067;-84
2021/06/23 11:24:17;;;;;;;13.20;8.07;;;28.70;65.00;;;;;;4897794;28;20048;-83
2021/06/23 11:26:43;;;;;;;10.80;6.72;;;29.10;61.70;;;;;;4898847;28;20062;-83
2021/06/23 11:29:09;;;;;;;15.15;6.88;;;29.20;61.60;;;;;;4945402;28;20035;-82
2021/06/23 11:31:46;;;;;;;13.50;7.10;;;29.40;61.10;;;;;;4928527;28;20032;-81
2021/06/23 11:34:32;;;;;;;10.07;7.30;;;29.60;59.80;;;;;;4917969;28;20126;-81
2021/06/23 11:36:58;;;;;;;15.60;7.35;;;29.80;59.70;;;;;;4940769;28;20032;-81
2021/06/23 11:39:23;;;;;;;11.30;6.88;;;29.90;58.90;;;;;;4909749;28;20034;-81
2021/06/23 11:41:49;;;;;;;11.82;6.75;;;30.00;58.80;;;;;;4888901;28;20044;-80
2021/06/23 11:44:14;;;;;;;16.85;7.07;;;30.20;58.20;;;;;;4929220;28;20047;-80
2021/06/23 11:46:40;;;;;;;11.73;7.55;;;30.30;58.30;;;;;;4916959;28;20039;-80
2021/06/23 11:49:05;;;;;;;10.73;7.68;;;30.40;56.90;;;;;;4922395;28;20094;-81
2021/06/23 11:51:31;;;;;;;11.38;5.55;;;30.60;57.50;;;;;;4890404;28;20411;-80
2021/06/23 11:53:56;;;;;;;10.70;6.22;;;30.60;56.20;;;;;;4978388;28;20032;-79
2021/06/23 11:56:22;;;;;;;16.33;8.40;;;30.70;56.60;;;;;;5007197;28;20046;-79
2021/06/23 11:58:47;;;;;;;12.85;7.05;;;30.80;56.40;;;;;;4925940;29;20043;-80
2021/06/23 12:01:13;;;;;;;9.98;7.68;;;30.90;56.20;;;;;;4987947;28;20036;-79
2021/06/23 12:03:38;;;;;;;14.32;9.13;;;30.90;56.10;;;;;;4921566;28;20039;-80
2021/06/23 12:06:04;;;;;;;16.27;9.57;;;31.00;56.00;;;;;;4927484;28;20434;-79
2021/06/23 12:08:30;;;;;;;13.60;8.45;;;31.20;54.60;;;;;;4938983;28;20036;-79
2021/06/23 12:10:55;;;;;;;13.27;7.82;;;31.30;55.30;;;;;;4993438;28;20052;-79
2021/06/23 12:13:22;;;;;;;11.75;8.07;;;31.50;55.00;;;;;;4927270;28;20463;-79
2021/06/23 12:15:48;;;;;;;13.82;7.93;;;31.50;54.30;;;;;;4904533;28;20086;-79
2021/06/23 12:18:13;;;;;;;18.20;10.35;;;31.60;53.20;;;;;;4924646;28;20048;-79
2021/06/23 12:20:40;;;;;;;11.15;8.48;;;31.70;52.40;;;;;;4903803;28;20042;-78
2021/06/23 12:23:07;;;;;;;13.70;9.63;;;31.80;53.20;;;;;;4911186;28;20483;-79
2021/06/23 12:25:40;;;;;;;12.27;6.88;;;32.00;52.30;;;;;;4918507;28;20031;-79
2021/06/23 12:28:06;;;;;;;13.20;8.32;;;32.10;52.50;;;;;;4915869;28;20040;-80
2021/06/23 12:30:32;;;;;;;14.38;10.00;;;31.90;49.60;;;;;;4926275;28;20055;-79
2021/06/23 12:32:58;;;;;;;15.85;7.75;;;31.80;50.10;;;;;;5004618;28;20028;-78
2021/06/23 12:35:24;;;;;;;13.95;7.50;;;31.90;51.10;;;;;;4913499;28;20148;-78
2021/06/23 12:37:50;;;;;;;13.38;10.63;;;31.80;51.60;;;;;;4929560;28;20189;-75
2021/06/23 12:40:16;;;;;;;14.85;9.85;;;31.90;51.20;;;;;;4939696;28;20367;-78
2021/06/23 12:42:41;;;;;;;15.95;8.93;;;31.90;51.40;;;;;;4895981;28;20031;-79
2021/06/23 12:45:07;;;;;;;13.60;8.68;;;32.00;51.60;;;;;;4932101;28;20580;-79
2021/06/23 12:47:33;;;;;;;11.55;9.77;;;32.20;51.00;;;;;;4935991;28;20063;-78
2021/06/23 12:49:58;;;;;;;9.70;8.63;;;32.50;51.30;;;;;;4916783;28;20021;-79